EDDK/CGN METAR and TAF weather

Enter ICAO airport designator
Station Type Date Time Source
EDDK METAR 2024/04/17 18:20 UTC NOAA

EDDK 171820Z AUTO 02006KT 340V050 CAVOK 05/03 Q1011 NOSIG


Station Type Date Time Source
EDDK Decoded METAR 2024/04/17 18:20 UTC NOAA

Koeln / Bonn, Germany (EDDK) 50-52N 007-10E 100M
Apr 17, 2024 - 02:20 PM EDT / 2024.04.17 1820 UTC
Wind: from the NNE (020 degrees) at 7 MPH (6 KT) (direction variable):0
Visibility: greater than 7 mile(s):0
Temperature: 41 F (5 C)
Dew Point: 37 F (3 C)
Relative Humidity: 86%
Pressure (altimeter): 29.85 in. Hg (1011 hPa)
ob: EDDK 171820Z AUTO 02006KT 340V050 CAVOK 05/03 Q1011 NOSIG
cycle: 18

Station Type Date Time Source
EDDK TAF 2024/04/17 18:27 UTC NOAA